sensor_id;sensor_type;location;lat;lon;timestamp;pressure;altitude;pressure_sealevel;temperature;humidity
5609;BME280;2826;51.354;9.588;2023-02-01T00:00:30;98287.56;;;5.75;74.03
5609;BME280;2826;51.354;9.588;2023-02-01T00:03:00;98262.16;;;5.57;74.15
5609;BME280;2826;51.354;9.588;2023-02-01T00:05:26;98290.97;;;5.76;74.26
5609;BME280;2826;51.354;9.588;2023-02-01T00:07:53;98279.13;;;5.69;74.52
5609;BME280;2826;51.354;9.588;2023-02-01T00:10:20;98284.28;;;5.67;74.97
5609;BME280;2826;51.354;9.588;2023-02-01T00:12:46;98280.06;;;5.63;75.21
5609;BME280;2826;51.354;9.588;2023-02-01T00:15:13;98279.34;;;5.55;75.70
5609;BME280;2826;51.354;9.588;2023-02-01T00:17:40;98286.16;;;5.57;75.25
5609;BME280;2826;51.354;9.588;2023-02-01T00:20:09;98282.72;;;5.57;75.10
5609;BME280;2826;51.354;9.588;2023-02-01T00:22:36;98286.09;;;5.62;75.26
5609;BME280;2826;51.354;9.588;2023-02-01T00:25:03;98285.22;;;5.63;74.77
5609;BME280;2826;51.354;9.588;2023-02-01T00:27:30;98285.25;;;5.61;74.89
5609;BME280;2826;51.354;9.588;2023-02-01T00:29:56;98275.06;;;5.55;75.47
5609;BME280;2826;51.354;9.588;2023-02-01T00:32:23;98276.91;;;5.48;75.34
5609;BME280;2826;51.354;9.588;2023-02-01T00:34:50;98268.38;;;5.43;75.51
5609;BME280;2826;51.354;9.588;2023-02-01T00:37:19;98271.91;;;5.39;75.66
5609;BME280;2826;51.354;9.588;2023-02-01T00:39:47;98263.41;;;5.34;75.93
5609;BME280;2826;51.354;9.588;2023-02-01T00:42:14;98268.59;;;5.32;76.04
5609;BME280;2826;51.354;9.588;2023-02-01T00:44:45;98259.16;;;5.31;75.99
5609;BME280;2826;51.354;9.588;2023-02-01T00:47:12;98256.56;;;5.33;75.90
5609;BME280;2826;51.354;9.588;2023-02-01T00:49:38;98248.97;;;5.27;76.12
5609;BME280;2826;51.354;9.588;2023-02-01T00:52:05;98258.56;;;5.17;76.49
5609;BME280;2826;51.354;9.588;2023-02-01T00:54:33;98251.69;;;5.17;76.01
5609;BME280;2826;51.354;9.588;2023-02-01T00:57:02;98253.53;;;5.10;76.20
5609;BME280;2826;51.354;9.588;2023-02-01T00:59:28;98255.34;;;5.04;76.55
5609;BME280;2826;51.354;9.588;2023-02-01T01:01:55;98264.88;;;4.97;76.70
5609;BME280;2826;51.354;9.588;2023-02-01T01:04:21;98263.22;;;4.91;77.05
5609;BME280;2826;51.354;9.588;2023-02-01T01:06:48;98267.59;;;4.86;77.44
5609;BME280;2826;51.354;9.588;2023-02-01T01:09:15;98269.31;;;4.84;77.19
5609;BME280;2826;51.354;9.588;2023-02-01T01:11:43;98271.09;;;4.80;77.49
5609;BME280;2826;51.354;9.588;2023-02-01T01:14:10;98228.66;;;4.53;77.74
5609;BME280;2826;51.354;9.588;2023-02-01T01:16:37;98266.97;;;4.70;77.69
5609;BME280;2826;51.354;9.588;2023-02-01T01:19:04;98270.34;;;4.74;77.75
5609;BME280;2826;51.354;9.588;2023-02-01T01:21:32;98266.88;;;4.76;77.88
5609;BME280;2826;51.354;9.588;2023-02-01T01:23:58;98273.72;;;4.76;78.07
5609;BME280;2826;51.354;9.588;2023-02-01T01:26:28;98270.31;;;4.77;77.87
5609;BME280;2826;51.354;9.588;2023-02-01T01:28:58;98249.78;;;4.75;78.02
5609;BME280;2826;51.354;9.588;2023-02-01T01:31:26;98259.13;;;4.79;77.81
5609;BME280;2826;51.354;9.588;2023-02-01T01:33:55;98251.38;;;4.81;78.02
5609;BME280;2826;51.354;9.588;2023-02-01T01:36:23;98247.88;;;4.85;77.40
5609;BME280;2826;51.354;9.588;2023-02-01T01:38:51;98242.75;;;4.85;77.67
5609;BME280;2826;51.354;9.588;2023-02-01T01:41:19;98245.38;;;4.83;77.49
5609;BME280;2826;51.354;9.588;2023-02-01T01:43:53;98229.06;;;4.84;77.38
5609;BME280;2826;51.354;9.588;2023-02-01T01:46:24;98218.81;;;4.83;77.30
5609;BME280;2826;51.354;9.588;2023-02-01T01:48:56;98219.69;;;4.82;76.88
5609;BME280;2826;51.354;9.588;2023-02-01T01:51:28;98218.78;;;4.86;76.66
5609;BME280;2826;51.354;9.588;2023-02-01T01:53:59;98223.03;;;4.89;76.71
5609;BME280;2826;51.354;9.588;2023-02-01T01:56:28;98223.91;;;4.86;76.51
5609;BME280;2826;51.354;9.588;2023-02-01T01:58:57;98217.09;;;4.83;76.37
5609;BME280;2826;51.354;9.588;2023-02-01T02:01:26;98211.16;;;4.80;76.59
5609;BME280;2826;51.354;9.588;2023-02-01T02:03:53;98215.38;;;4.82;76.72
5609;BME280;2826;51.354;9.588;2023-02-01T02:06:32;98224.84;;;4.82;76.45
5609;BME280;2826;51.354;9.588;2023-02-01T02:09:00;98223.09;;;4.82;76.63
5609;BME280;2826;51.354;9.588;2023-02-01T02:11:26;98203.50;;;4.77;76.83
5609;BME280;2826;51.354;9.588;2023-02-01T02:13:55;98206.84;;;4.82;77.00
5609;BME280;2826;51.354;9.588;2023-02-01T02:16:50;98198.38;;;4.77;77.02
5609;BME280;2826;51.354;9.588;2023-02-01T02:19:53;98202.63;;;4.78;77.24
5609;BME280;2826;51.354;9.588;2023-02-01T02:22:44;98195.72;;;4.80;76.99
5609;BME280;2826;51.354;9.588;2023-02-01T02:28:35;98203.50;;;4.77;77.31
5609;BME280;2826;51.354;9.588;2023-02-01T02:31:28;98193.94;;;4.85;77.45
5609;BME280;2826;51.354;9.588;2023-02-01T02:34:09;98185.44;;;4.81;77.73
5609;BME280;2826;51.354;9.588;2023-02-01T02:36:48;98170.03;;;4.81;77.90
5609;BME280;2826;51.354;9.588;2023-02-01T02:39:23;98173.19;;;4.96;77.97
5609;BME280;2826;51.354;9.588;2023-02-01T02:41:56;98174.03;;;4.98;78.54
5609;BME280;2826;51.354;9.588;2023-02-01T02:44:47;98174.66;;;5.13;78.27
5609;BME280;2826;51.354;9.588;2023-02-01T02:47:34;98136.06;;;5.14;78.23
5609;BME280;2826;51.354;9.588;2023-02-01T02:50:11;98156.41;;;5.27;77.96
5609;BME280;2826;51.354;9.588;2023-02-01T02:53:03;98164.97;;;5.26;77.86
5609;BME280;2826;51.354;9.588;2023-02-01T02:55:50;98163.19;;;5.31;77.84
5609;BME280;2826;51.354;9.588;2023-02-01T02:58:19;98163.22;;;5.29;78.03
5609;BME280;2826;51.354;9.588;2023-02-01T03:01:04;98165.13;;;5.18;79.09
5609;BME280;2826;51.354;9.588;2023-02-01T03:03:49;98157.75;;;4.99;80.06
5609;BME280;2826;51.354;9.588;2023-02-01T03:06:37;98154.53;;;4.88;80.51
5609;BME280;2826;51.354;9.588;2023-02-01T03:09:09;98153.00;;;4.74;81.20
5609;BME280;2826;51.354;9.588;2023-02-01T03:11:40;98153.97;;;4.68;81.49
5609;BME280;2826;51.354;9.588;2023-02-01T03:14:28;98150.81;;;4.52;82.55
5609;BME280;2826;51.354;9.588;2023-02-01T03:16:59;98148.19;;;4.54;82.37
5609;BME280;2826;51.354;9.588;2023-02-01T03:19:33;98147.41;;;4.49;82.86
5609;BME280;2826;51.354;9.588;2023-02-01T03:22:05;98145.72;;;4.48;82.91
5609;BME280;2826;51.354;9.588;2023-02-01T03:24:38;98142.28;;;4.49;83.00
5609;BME280;2826;51.354;9.588;2023-02-01T03:27:08;98137.97;;;4.51;83.06
5609;BME280;2826;51.354;9.588;2023-02-01T03:29:40;98134.53;;;4.52;83.10
5609;BME280;2826;51.354;9.588;2023-02-01T03:32:11;98125.03;;;4.57;82.59
5609;BME280;2826;51.354;9.588;2023-02-01T03:34:38;98128.38;;;4.62;82.23
5609;BME280;2826;51.354;9.588;2023-02-01T03:37:09;98118.00;;;4.68;81.77
5609;BME280;2826;51.354;9.588;2023-02-01T03:39:39;98106.81;;;4.73;81.48
5609;BME280;2826;51.354;9.588;2023-02-01T03:42:13;98106.69;;;4.79;80.89
5609;BME280;2826;51.354;9.588;2023-02-01T03:44:43;98101.41;;;4.87;79.48
5609;BME280;2826;51.354;9.588;2023-02-01T03:47:14;98098.72;;;4.94;78.88
5609;BME280;2826;51.354;9.588;2023-02-01T03:49:48;98112.94;;;5.14;77.43
5609;BME280;2826;51.354;9.588;2023-02-01T03:52:20;98111.22;;;5.15;76.80
5609;BME280;2826;51.354;9.588;2023-02-01T03:54:51;98096.25;;;5.34;75.83
5609;BME280;2826;51.354;9.588;2023-02-01T03:57:22;98092.84;;;5.35;75.25
5609;BME280;2826;51.354;9.588;2023-02-01T03:59:50;98097.13;;;5.34;75.03
5609;BME280;2826;51.354;9.588;2023-02-01T04:02:17;98095.28;;;5.41;74.31
5609;BME280;2826;51.354;9.588;2023-02-01T04:04:44;98083.41;;;5.34;73.67
5609;BME280;2826;51.354;9.588;2023-02-01T04:07:14;98092.53;;;5.51;72.76
5609;BME280;2826;51.354;9.588;2023-02-01T04:09:43;98094.91;;;5.60;72.71
5609;BME280;2826;51.354;9.588;2023-02-01T04:12:10;98084.59;;;5.61;72.06
5609;BME280;2826;51.354;9.588;2023-02-01T04:14:36;98083.66;;;5.64;71.45
5609;BME280;2826;51.354;9.588;2023-02-01T04:17:03;98074.03;;;5.74;71.68
5609;BME280;2826;51.354;9.588;2023-02-01T04:19:30;98082.53;;;5.78;70.81
5609;BME280;2826;51.354;9.588;2023-02-01T04:21:56;98081.63;;;5.80;70.82
5609;BME280;2826;51.354;9.588;2023-02-01T04:24:23;98077.38;;;5.78;70.88
5609;BME280;2826;51.354;9.588;2023-02-01T04:26:51;98065.50;;;5.72;70.80
5609;BME280;2826;51.354;9.588;2023-02-01T04:29:17;98066.09;;;5.85;70.44
5609;BME280;2826;51.354;9.588;2023-02-01T04:31:44;98068.88;;;5.75;70.97
5609;BME280;2826;51.354;9.588;2023-02-01T04:34:11;98063.97;;;5.63;70.57
5609;BME280;2826;51.354;9.588;2023-02-01T04:36:38;98055.16;;;5.73;70.53
5609;BME280;2826;51.354;9.588;2023-02-01T04:39:04;98061.94;;;5.78;70.14
5609;BME280;2826;51.354;9.588;2023-02-01T04:41:31;98060.13;;;5.81;70.13
5609;BME280;2826;51.354;9.588;2023-02-01T04:43:59;98055.91;;;5.79;70.05
5609;BME280;2826;51.354;9.588;2023-02-01T04:46:25;98054.84;;;5.89;70.05
5609;BME280;2826;51.354;9.588;2023-02-01T04:48:52;98036.94;;;5.83;69.85
5609;BME280;2826;51.354;9.588;2023-02-01T04:51:19;98050.94;;;5.71;69.83
5609;BME280;2826;51.354;9.588;2023-02-01T04:53:45;98050.03;;;5.73;69.75
5609;BME280;2826;51.354;9.588;2023-02-01T04:56:12;98042.06;;;5.84;70.07
5609;BME280;2826;51.354;9.588;2023-02-01T04:58:38;98031.91;;;5.80;70.05
5609;BME280;2826;51.354;9.588;2023-02-01T05:01:06;98039.56;;;5.81;69.68
5609;BME280;2826;51.354;9.588;2023-02-01T05:03:34;98031.69;;;5.89;69.52
5609;BME280;2826;51.354;9.588;2023-02-01T05:06:01;98028.19;;;5.92;69.50
5609;BME280;2826;51.354;9.588;2023-02-01T05:08:29;98028.63;;;5.73;69.57
5609;BME280;2826;51.354;9.588;2023-02-01T05:10:56;98038.69;;;5.82;69.67
5609;BME280;2826;51.354;9.588;2023-02-01T05:13:24;98033.56;;;5.82;69.66
5609;BME280;2826;51.354;9.588;2023-02-01T05:16:10;98030.13;;;5.82;69.75
5609;BME280;2826;51.354;9.588;2023-02-01T05:18:36;98017.06;;;5.89;68.99
5609;BME280;2826;51.354;9.588;2023-02-01T05:21:03;98030.81;;;5.88;69.03
5609;BME280;2826;51.354;9.588;2023-02-01T05:23:30;98020.47;;;5.92;68.78
5609;BME280;2826;51.354;9.588;2023-02-01T05:25:58;98022.38;;;5.83;68.97
5609;BME280;2826;51.354;9.588;2023-02-01T05:28:25;98024.03;;;5.86;68.61
5609;BME280;2826;51.354;9.588;2023-02-01T05:30:52;98016.16;;;5.92;68.98
5609;BME280;2826;51.354;9.588;2023-02-01T05:33:21;98018.94;;;5.83;68.84
5609;BME280;2826;51.354;9.588;2023-02-01T05:35:47;98024.69;;;5.94;68.47
5609;BME280;2826;51.354;9.588;2023-02-01T05:38:15;98010.38;;;5.84;68.42
5609;BME280;2826;51.354;9.588;2023-02-01T05:40:42;98016.25;;;5.89;68.94
5609;BME280;2826;51.354;9.588;2023-02-01T05:43:15;98006.88;;;5.86;68.88
5609;BME280;2826;51.354;9.588;2023-02-01T05:45:41;98011.25;;;5.81;69.22
5609;BME280;2826;51.354;9.588;2023-02-01T05:48:08;98009.34;;;5.89;69.03
5609;BME280;2826;51.354;9.588;2023-02-01T05:50:36;98004.34;;;5.83;69.67
5609;BME280;2826;51.354;9.588;2023-02-01T05:53:07;97996.63;;;5.83;70.20
5609;BME280;2826;51.354;9.588;2023-02-01T05:55:34;98005.34;;;5.78;70.47
5609;BME280;2826;51.354;9.588;2023-02-01T05:58:02;97996.84;;;5.74;70.77
5609;BME280;2826;51.354;9.588;2023-02-01T06:00:29;97992.84;;;5.62;71.34
5609;BME280;2826;51.354;9.588;2023-02-01T06:02:55;97997.06;;;5.65;71.84
5609;BME280;2826;51.354;9.588;2023-02-01T06:05:22;97995.25;;;5.68;72.16
5609;BME280;2826;51.354;9.588;2023-02-01T06:07:52;97999.41;;;5.75;72.45
5609;BME280;2826;51.354;9.588;2023-02-01T06:10:19;98017.25;;;5.82;72.15
5609;BME280;2826;51.354;9.588;2023-02-01T06:12:46;98006.75;;;5.52;73.61
5609;BME280;2826;51.354;9.588;2023-02-01T06:15:13;98012.91;;;5.46;74.69
5609;BME280;2826;51.354;9.588;2023-02-01T06:17:41;98004.59;;;5.33;75.21
5609;BME280;2826;51.354;9.588;2023-02-01T06:20:10;98014.75;;;5.39;75.43
5609;BME280;2826;51.354;9.588;2023-02-01T06:22:37;98005.59;;;5.26;76.17
5609;BME280;2826;51.354;9.588;2023-02-01T06:25:06;98002.84;;;5.35;76.29
5609;BME280;2826;51.354;9.588;2023-02-01T06:27:33;98003.75;;;5.32;76.76
5609;BME280;2826;51.354;9.588;2023-02-01T06:30:00;97996.53;;;5.07;77.51
5609;BME280;2826;51.354;9.588;2023-02-01T06:32:28;97995.25;;;5.29;77.10
5609;BME280;2826;51.354;9.588;2023-02-01T06:34:54;97997.72;;;5.33;76.91
5609;BME280;2826;51.354;9.588;2023-02-01T06:37:22;98008.94;;;5.31;76.83
5609;BME280;2826;51.354;9.588;2023-02-01T06:39:51;98003.78;;;5.31;77.03
5609;BME280;2826;51.354;9.588;2023-02-01T06:42:19;98001.25;;;5.29;77.75
5609;BME280;2826;51.354;9.588;2023-02-01T06:44:45;97985.34;;;5.10;78.57
5609;BME280;2826;51.354;9.588;2023-02-01T06:47:12;97994.34;;;5.30;78.16
5609;BME280;2826;51.354;9.588;2023-02-01T06:49:38;98013.41;;;5.21;78.76
5609;BME280;2826;51.354;9.588;2023-02-01T06:52:05;98003.19;;;5.18;78.82
5609;BME280;2826;51.354;9.588;2023-02-01T06:54:32;98004.72;;;5.27;78.34
5609;BME280;2826;51.354;9.588;2023-02-01T06:56:59;98001.03;;;5.39;77.81
5609;BME280;2826;51.354;9.588;2023-02-01T06:59:27;98000.44;;;5.26;77.72
5609;BME280;2826;51.354;9.588;2023-02-01T07:01:54;97986.63;;;5.30;76.92
5609;BME280;2826;51.354;9.588;2023-02-01T07:04:20;97990.97;;;5.29;77.32
5609;BME280;2826;51.354;9.588;2023-02-01T07:06:47;98004.28;;;5.48;76.44
5609;BME280;2826;51.354;9.588;2023-02-01T07:09:13;97987.91;;;5.53;75.75
5609;BME280;2826;51.354;9.588;2023-02-01T07:11:40;97993.81;;;5.56;74.72
5609;BME280;2826;51.354;9.588;2023-02-01T07:14:08;97999.66;;;5.63;74.85
5609;BME280;2826;51.354;9.588;2023-02-01T07:16:37;98004.84;;;5.61;75.13
5609;BME280;2826;51.354;9.588;2023-02-01T07:19:04;98002.13;;;5.68;74.43
5609;BME280;2826;51.354;9.588;2023-02-01T07:21:31;98009.28;;;5.55;74.52
5609;BME280;2826;51.354;9.588;2023-02-01T07:23:58;98007.44;;;5.60;74.11
5609;BME280;2826;51.354;9.588;2023-02-01T07:26:25;98021.72;;;5.73;74.07
5609;BME280;2826;51.354;9.588;2023-02-01T07:28:52;98031.22;;;5.71;73.43
5609;BME280;2826;51.354;9.588;2023-02-01T07:31:19;98025.03;;;5.79;73.36
5609;BME280;2826;51.354;9.588;2023-02-01T07:33:48;98038.50;;;5.92;72.55
5609;BME280;2826;51.354;9.588;2023-02-01T07:36:17;98052.75;;;5.67;72.85
5609;BME280;2826;51.354;9.588;2023-02-01T07:38:44;98048.13;;;5.82;72.72
5609;BME280;2826;51.354;9.588;2023-02-01T07:41:12;98026.78;;;5.78;72.01
5609;BME280;2826;51.354;9.588;2023-02-01T07:43:39;98036.97;;;5.81;71.83
5609;BME280;2826;51.354;9.588;2023-02-01T07:46:05;98019.03;;;5.80;72.20
5609;BME280;2826;51.354;9.588;2023-02-01T07:48:33;98039.31;;;5.92;71.30
5609;BME280;2826;51.354;9.588;2023-02-01T07:51:03;98029.72;;;5.99;71.57
5609;BME280;2826;51.354;9.588;2023-02-01T07:53:31;97997.59;;;5.79;70.61
5609;BME280;2826;51.354;9.588;2023-02-01T07:55:58;98032.25;;;6.00;70.81
5609;BME280;2826;51.354;9.588;2023-02-01T07:58:25;98071.09;;;5.91;70.24
5609;BME280;2826;51.354;9.588;2023-02-01T08:00:52;98041.13;;;5.88;70.01
5609;BME280;2826;51.354;9.588;2023-02-01T08:03:37;98048.81;;;5.90;69.97
5609;BME280;2826;51.354;9.588;2023-02-01T08:06:05;98050.53;;;5.89;70.31
5609;BME280;2826;51.354;9.588;2023-02-01T08:08:32;98038.72;;;5.81;69.76
5609;BME280;2826;51.354;9.588;2023-02-01T08:10:59;98053.97;;;5.90;69.67
5609;BME280;2826;51.354;9.588;2023-02-01T08:13:26;98068.50;;;5.91;69.71
5609;BME280;2826;51.354;9.588;2023-02-01T08:15:57;98059.97;;;5.91;69.95
5609;BME280;2826;51.354;9.588;2023-02-01T08:18:24;98072.13;;;5.84;70.20
5609;BME280;2826;51.354;9.588;2023-02-01T08:20:50;98078.13;;;5.83;70.10
5609;BME280;2826;51.354;9.588;2023-02-01T08:23:18;98081.34;;;5.93;69.95
5609;BME280;2826;51.354;9.588;2023-02-01T08:25:45;98077.81;;;5.98;69.94
5609;BME280;2826;51.354;9.588;2023-02-01T08:28:12;98079.44;;;6.04;69.77
5609;BME280;2826;51.354;9.588;2023-02-01T08:30:39;98096.56;;;6.05;69.59
5609;BME280;2826;51.354;9.588;2023-02-01T08:33:07;98088.28;;;5.91;70.21
5609;BME280;2826;51.354;9.588;2023-02-01T08:35:35;98081.38;;;5.91;69.15
5609;BME280;2826;51.354;9.588;2023-02-01T08:38:02;98089.00;;;5.96;69.29
5609;BME280;2826;51.354;9.588;2023-02-01T08:40:32;98102.00;;;5.89;68.93
5609;BME280;2826;51.354;9.588;2023-02-01T08:42:59;98083.75;;;6.00;67.93
5609;BME280;2826;51.354;9.588;2023-02-01T08:45:28;98091.22;;;6.13;67.95
5609;BME280;2826;51.354;9.588;2023-02-01T08:47:55;98085.94;;;6.19;67.80
5609;BME280;2826;51.354;9.588;2023-02-01T08:50:22;98097.97;;;6.19;68.05
5609;BME280;2826;51.354;9.588;2023-02-01T08:52:49;98083.41;;;6.18;67.44
5609;BME280;2826;51.354;9.588;2023-02-01T08:55:17;98101.16;;;6.28;67.93
5609;BME280;2826;51.354;9.588;2023-02-01T08:57:46;98101.31;;;6.22;67.42
5609;BME280;2826;51.354;9.588;2023-02-01T09:00:14;98113.03;;;6.36;67.94
5609;BME280;2826;51.354;9.588;2023-02-01T09:02:41;98108.19;;;6.22;68.05
5609;BME280;2826;51.354;9.588;2023-02-01T09:05:09;98119.94;;;6.34;68.33
5609;BME280;2826;51.354;9.588;2023-02-01T09:07:36;98101.28;;;6.24;68.45
5609;BME280;2826;51.354;9.588;2023-02-01T09:10:03;98104.31;;;6.42;67.88
5609;BME280;2826;51.354;9.588;2023-02-01T09:12:31;98094.06;;;6.38;68.28
5609;BME280;2826;51.354;9.588;2023-02-01T09:14:59;98116.50;;;6.35;67.77
5609;BME280;2826;51.354;9.588;2023-02-01T09:17:26;98092.19;;;6.45;67.93
5609;BME280;2826;51.354;9.588;2023-02-01T09:19:53;98110.03;;;6.53;67.21
5609;BME280;2826;51.354;9.588;2023-02-01T09:22:19;98107.25;;;6.62;67.00
5609;BME280;2826;51.354;9.588;2023-02-01T09:24:46;98110.63;;;6.64;67.14
5609;BME280;2826;51.354;9.588;2023-02-01T09:27:13;98114.13;;;6.62;66.95
5609;BME280;2826;51.354;9.588;2023-02-01T09:29:39;98118.44;;;6.61;67.40
5609;BME280;2826;51.354;9.588;2023-02-01T09:32:08;98105.56;;;6.60;66.92
5609;BME280;2826;51.354;9.588;2023-02-01T09:34:35;98118.16;;;6.72;66.91
5609;BME280;2826;51.354;9.588;2023-02-01T09:37:01;98108.66;;;6.76;66.77
5609;BME280;2826;51.354;9.588;2023-02-01T09:39:28;98111.34;;;6.70;65.84
5609;BME280;2826;51.354;9.588;2023-02-01T09:42:08;98124.03;;;6.77;65.69
5609;BME280;2826;51.354;9.588;2023-02-01T09:44:49;98112.94;;;6.75;65.74
5609;BME280;2826;51.354;9.588;2023-02-01T09:47:22;98111.97;;;6.79;65.46
5609;BME280;2826;51.354;9.588;2023-02-01T09:49:55;98128.84;;;6.93;64.23
5609;BME280;2826;51.354;9.588;2023-02-01T09:52:27;98124.22;;;7.04;64.46
5609;BME280;2826;51.354;9.588;2023-02-01T09:55:00;98128.63;;;7.01;64.00
5609;BME280;2826;51.354;9.588;2023-02-01T09:57:43;98121.50;;;7.11;62.45
5609;BME280;2826;51.354;9.588;2023-02-01T10:00:17;98129.44;;;7.03;63.22
5609;BME280;2826;51.354;9.588;2023-02-01T10:02:46;98118.91;;;7.12;63.38
5609;BME280;2826;51.354;9.588;2023-02-01T10:05:16;98140.03;;;6.92;63.54
5609;BME280;2826;51.354;9.588;2023-02-01T10:07:57;98168.56;;;6.84;63.71
5609;BME280;2826;51.354;9.588;2023-02-01T10:10:30;98114.66;;;6.75;62.75
5609;BME280;2826;51.354;9.588;2023-02-01T10:16:05;98127.56;;;6.75;62.28
5609;BME280;2826;51.354;9.588;2023-02-01T10:19:00;98118.03;;;6.78;62.06
5609;BME280;2826;51.354;9.588;2023-02-01T10:21:40;98129.75;;;6.90;61.81
5609;BME280;2826;51.354;9.588;2023-02-01T10:24:28;98122.81;;;6.92;62.31
5609;BME280;2826;51.354;9.588;2023-02-01T10:27:02;98114.97;;;6.97;62.10
5609;BME280;2826;51.354;9.588;2023-02-01T10:29:34;98109.44;;;6.78;62.16
5609;BME280;2826;51.354;9.588;2023-02-01T10:32:03;98111.75;;;6.89;62.62
5609;BME280;2826;51.354;9.588;2023-02-01T10:34:37;98107.72;;;6.78;63.36
5609;BME280;2826;51.354;9.588;2023-02-01T10:37:14;98117.75;;;6.89;63.33
5609;BME280;2826;51.354;9.588;2023-02-01T10:39:45;98110.63;;;6.99;63.17
5609;BME280;2826;51.354;9.588;2023-02-01T10:42:13;98114.84;;;7.02;62.99
5609;BME280;2826;51.354;9.588;2023-02-01T10:44:42;98105.00;;;6.83;62.92
5609;BME280;2826;51.354;9.588;2023-02-01T10:47:11;98104.19;;;6.83;62.70
5609;BME280;2826;51.354;9.588;2023-02-01T10:49:42;98111.34;;;6.70;62.89
5609;BME280;2826;51.354;9.588;2023-02-01T10:52:14;98104.34;;;6.75;62.99
5609;BME280;2826;51.354;9.588;2023-02-01T10:54:42;98116.16;;;6.85;63.03
5609;BME280;2826;51.354;9.588;2023-02-01T10:57:19;98100.72;;;6.84;63.30
5609;BME280;2826;51.354;9.588;2023-02-01T10:59:46;98100.69;;;6.85;63.25
5609;BME280;2826;51.354;9.588;2023-02-01T11:02:30;98090.44;;;6.82;63.05
5609;BME280;2826;51.354;9.588;2023-02-01T11:05:03;98084.88;;;6.98;63.53
5609;BME280;2826;51.354;9.588;2023-02-01T11:07:31;98076.69;;;6.82;63.86
5609;BME280;2826;51.354;9.588;2023-02-01T11:09:58;98071.19;;;6.96;64.21
5609;BME280;2826;51.354;9.588;2023-02-01T11:12:28;98063.97;;;7.09;64.23
5609;BME280;2826;51.354;9.588;2023-02-01T11:15:13;98059.66;;;7.09;64.37
5609;BME280;2826;51.354;9.588;2023-02-01T11:17:43;98071.13;;;6.99;64.20
5609;BME280;2826;51.354;9.588;2023-02-01T11:20:15;98067.13;;;6.87;64.46
5609;BME280;2826;51.354;9.588;2023-02-01T11:22:46;98057.34;;;7.00;64.59
5609;BME280;2826;51.354;9.588;2023-02-01T11:25:16;98045.22;;;7.02;63.85
5609;BME280;2826;51.354;9.588;2023-02-01T11:27:44;98054.97;;;6.92;64.08
5609;BME280;2826;51.354;9.588;2023-02-01T11:30:16;98068.53;;;6.99;64.03
5609;BME280;2826;51.354;9.588;2023-02-01T11:32:46;98073.72;;;6.97;64.12
5609;BME280;2826;51.354;9.588;2023-02-01T11:35:18;98067.75;;;6.95;63.99
5609;BME280;2826;51.354;9.588;2023-02-01T11:37:52;98062.44;;;7.01;64.23
5609;BME280;2826;51.354;9.588;2023-02-01T11:40:25;98058.00;;;7.06;63.44
5609;BME280;2826;51.354;9.588;2023-02-01T11:42:56;98077.03;;;7.02;63.77
5609;BME280;2826;51.354;9.588;2023-02-01T11:45:26;98079.50;;;7.07;63.46
5609;BME280;2826;51.354;9.588;2023-02-01T11:47:54;98054.88;;;6.95;62.90
5609;BME280;2826;51.354;9.588;2023-02-01T11:50:29;98058.31;;;7.27;62.57
5609;BME280;2826;51.354;9.588;2023-02-01T11:53:18;98046.81;;;7.39;62.24
5609;BME280;2826;51.354;9.588;2023-02-01T11:56:04;97993.97;;;7.23;62.15
5609;BME280;2826;51.354;9.588;2023-02-01T11:58:58;98036.53;;;7.68;61.17
5609;BME280;2826;51.354;9.588;2023-02-01T12:01:37;98023.50;;;7.71;60.82
5609;BME280;2826;51.354;9.588;2023-02-01T12:04:52;98020.13;;;7.69;60.51
5609;BME280;2826;51.354;9.588;2023-02-01T12:07:30;98018.50;;;7.66;60.12
5609;BME280;2826;51.354;9.588;2023-02-01T12:10:11;98001.78;;;7.78;60.47
5609;BME280;2826;51.354;9.588;2023-02-01T12:12:51;98003.72;;;7.71;59.35
5609;BME280;2826;51.354;9.588;2023-02-01T12:15:40;98007.22;;;7.69;59.50
5609;BME280;2826;51.354;9.588;2023-02-01T12:18:33;97997.66;;;7.72;59.02
5609;BME280;2826;51.354;9.588;2023-02-01T12:21:15;97994.31;;;7.69;59.51
5609;BME280;2826;51.354;9.588;2023-02-01T12:26:47;97979.94;;;7.60;59.73
5609;BME280;2826;51.354;9.588;2023-02-01T12:29:29;97987.66;;;7.62;59.27
5609;BME280;2826;51.354;9.588;2023-02-01T12:32:22;97987.97;;;7.51;60.26
5609;BME280;2826;51.354;9.588;2023-02-01T12:35:09;97980.22;;;7.51;59.76
5609;BME280;2826;51.354;9.588;2023-02-01T12:37:51;97970.38;;;7.35;59.96
5609;BME280;2826;51.354;9.588;2023-02-01T12:40:32;97966.78;;;7.41;60.86
5609;BME280;2826;51.354;9.588;2023-02-01T12:43:05;97963.00;;;7.53;60.56
5609;BME280;2826;51.354;9.588;2023-02-01T12:45:39;97952.56;;;7.56;60.15
5609;BME280;2826;51.354;9.588;2023-02-01T12:48:23;97940.38;;;7.61;59.55
5609;BME280;2826;51.354;9.588;2023-02-01T12:50:54;97919.78;;;7.87;59.61
5609;BME280;2826;51.354;9.588;2023-02-01T12:53:27;97928.13;;;7.95;58.60
5609;BME280;2826;51.354;9.588;2023-02-01T12:56:00;97921.66;;;7.81;58.29
5609;BME280;2826;51.354;9.588;2023-02-01T12:58:35;97910.44;;;7.82;57.71
5609;BME280;2826;51.354;9.588;2023-02-01T13:01:07;97909.94;;;7.98;57.65
5609;BME280;2826;51.354;9.588;2023-02-01T13:03:39;97893.41;;;7.77;57.36
5609;BME280;2826;51.354;9.588;2023-02-01T13:06:10;97892.81;;;7.95;57.72
5609;BME280;2826;51.354;9.588;2023-02-01T13:08:43;97896.25;;;7.96;57.59
5609;BME280;2826;51.354;9.588;2023-02-01T13:11:16;97901.91;;;7.80;57.76
5609;BME280;2826;51.354;9.588;2023-02-01T13:13:51;97897.00;;;7.72;58.87
5609;BME280;2826;51.354;9.588;2023-02-01T13:16:24;97914.13;;;7.47;60.86
5609;BME280;2826;51.354;9.588;2023-02-01T13:19:00;97915.72;;;7.51;61.16
5609;BME280;2826;51.354;9.588;2023-02-01T13:21:33;97901.72;;;7.31;63.42
5609;BME280;2826;51.354;9.588;2023-02-01T13:24:02;97912.13;;;7.28;64.84
5609;BME280;2826;51.354;9.588;2023-02-01T13:26:31;97915.16;;;7.14;66.56
5609;BME280;2826;51.354;9.588;2023-02-01T13:29:00;97912.66;;;7.11;66.64
5609;BME280;2826;51.354;9.588;2023-02-01T13:31:51;97917.41;;;6.95;67.31
5609;BME280;2826;51.354;9.588;2023-02-01T13:38:01;97887.69;;;6.83;69.14
5609;BME280;2826;51.354;9.588;2023-02-01T13:40:37;97892.19;;;6.76;70.01
5609;BME280;2826;51.354;9.588;2023-02-01T13:43:12;97888.09;;;6.67;70.23
5609;BME280;2826;51.354;9.588;2023-02-01T13:45:46;97899.28;;;6.68;69.62
5609;BME280;2826;51.354;9.588;2023-02-01T13:48:20;97882.78;;;6.73;70.21
5609;BME280;2826;51.354;9.588;2023-02-01T13:50:51;97872.88;;;6.59;70.86
5609;BME280;2826;51.354;9.588;2023-02-01T13:53:23;97892.56;;;6.62;70.34
5609;BME280;2826;51.354;9.588;2023-02-01T13:55:56;97875.66;;;6.82;70.67
5609;BME280;2826;51.354;9.588;2023-02-01T13:58:31;97886.94;;;6.77;70.25
5609;BME280;2826;51.354;9.588;2023-02-01T14:01:31;97883.41;;;6.82;70.87
5609;BME280;2826;51.354;9.588;2023-02-01T14:04:00;97887.84;;;6.76;71.01
5609;BME280;2826;51.354;9.588;2023-02-01T14:06:44;97864.88;;;6.69;70.88